createdAt,value
2023-04-16T00:00:58.282Z,102217.78
2023-04-16T00:03:25.095Z,102210.41
2023-04-16T00:05:51.705Z,102223.41
2023-04-16T00:08:18.060Z,102228.75
2023-04-16T00:10:44.552Z,102235.44
2023-04-16T00:13:10.922Z,102236.72
2023-04-16T00:15:37.346Z,102235.72
2023-04-16T00:18:03.792Z,102224.34
2023-04-16T00:20:30.309Z,102230.75
2023-04-16T00:22:56.746Z,102237.72
2023-04-16T00:25:23.280Z,102242.72
2023-04-16T00:27:49.701Z,102238.75
2023-04-16T00:30:16.599Z,102242.16
2023-04-16T00:32:43.036Z,102239.31
2023-04-16T00:35:09.623Z,102240.97
2023-04-16T00:37:36.003Z,102244.84
2023-04-16T00:40:02.395Z,102242.69
2023-04-16T00:42:28.761Z,102236.38
2023-04-16T00:44:55.212Z,102239.78
2023-04-16T00:47:21.892Z,102249.75
2023-04-16T00:49:49.056Z,102250.50
2023-04-16T00:52:15.703Z,102252.66
2023-04-16T00:54:42.183Z,102212.22
2023-04-16T00:57:09.062Z,102246.56
2023-04-16T00:59:35.615Z,102244.03
2023-04-16T01:02:02.165Z,102250.44
2023-04-16T01:04:30.996Z,102256.63
2023-04-16T01:06:57.537Z,102242.75
2023-04-16T01:09:24.014Z,102259.59
2023-04-16T01:11:50.480Z,102251.28
2023-04-16T01:14:16.869Z,102264.44
2023-04-16T01:16:43.257Z,102269.56
2023-04-16T01:19:09.914Z,102261.53
2023-04-16T01:21:36.469Z,102259.84
2023-04-16T01:24:04.572Z,102270.13
2023-04-16T01:26:31.507Z,102268.41
2023-04-16T01:28:58.619Z,102272.16
2023-04-16T01:31:25.295Z,102266.53
2023-04-16T01:33:51.714Z,102276.78
2023-04-16T01:36:18.238Z,102269.44
2023-04-16T01:38:44.585Z,102268.19
2023-04-16T01:41:10.949Z,102268.97
2023-04-16T01:43:39.684Z,102275.19
2023-04-16T01:46:39.969Z,102276.78
2023-04-16T01:49:07.339Z,102248.28
2023-04-16T01:51:33.961Z,102274.44
2023-04-16T01:54:00.943Z,102286.13
2023-04-16T01:56:27.388Z,102281.56
2023-04-16T01:58:53.787Z,102282.66
2023-04-16T02:01:20.393Z,102280.53
2023-04-16T02:03:47.626Z,102278.16
2023-04-16T02:06:14.832Z,102288.88
2023-04-16T02:08:41.696Z,102278.09
2023-04-16T02:11:08.234Z,102234.81
2023-04-16T02:13:34.784Z,102279.69
2023-04-16T02:16:01.204Z,102283.28
2023-04-16T02:18:27.918Z,102282.03
2023-04-16T02:20:54.331Z,102280.88
2023-04-16T02:23:20.744Z,102275.94
2023-04-16T02:25:47.904Z,102279.25
2023-04-16T02:28:17.124Z,102268.69
2023-04-16T02:30:43.873Z,102284.88
2023-04-16T02:33:12.107Z,102285.22
2023-04-16T02:35:39.680Z,102285.78
2023-04-16T02:38:06.704Z,102284.53
2023-04-16T02:40:33.163Z,102287.56
2023-04-16T02:42:59.581Z,102294.91
2023-04-16T02:45:26.041Z,102292.41
2023-04-16T02:47:52.478Z,102296.69
2023-04-16T02:50:19.159Z,102298.13
2023-04-16T02:52:45.734Z,102292.59
2023-04-16T02:55:12.225Z,102295.66
2023-04-16T02:57:38.670Z,102294.63
2023-04-16T03:00:05.693Z,102299.28
2023-04-16T03:02:32.166Z,102305.44
2023-04-16T03:04:58.661Z,102303.63
2023-04-16T03:07:25.832Z,102307.06
2023-04-16T03:09:52.304Z,102312.66
2023-04-16T03:12:18.658Z,102304.44
2023-04-16T03:14:45.198Z,102308.84
2023-04-16T03:17:11.590Z,102298.72
2023-04-16T03:19:37.988Z,102282.88
2023-04-16T03:22:04.934Z,102299.88
2023-04-16T03:24:32.219Z,102309.88
2023-04-16T03:26:58.876Z,102315.50
2023-04-16T03:29:26.761Z,102311.16
2023-04-16T03:31:53.302Z,102323.72
2023-04-16T03:34:19.661Z,102315.06
2023-04-16T03:36:46.337Z,102316.63
2023-04-16T03:39:12.771Z,102317.16
2023-04-16T03:41:39.184Z,102318.78
2023-04-16T03:44:05.737Z,102311.53
2023-04-16T03:46:32.268Z,102326.97
2023-04-16T03:48:58.680Z,102318.19
2023-04-16T03:51:25.057Z,102322.78
2023-04-16T03:53:51.565Z,102332.16
2023-04-16T03:56:18.013Z,102295.06
2023-04-16T03:58:44.389Z,102338.28
2023-04-16T04:01:10.920Z,102334.75
2023-04-16T04:03:37.495Z,102330.72
2023-04-16T04:06:08.347Z,102328.91
2023-04-16T04:08:34.898Z,102324.56
2023-04-16T04:11:01.269Z,102327.03
2023-04-16T04:13:27.696Z,102331.41
2023-04-16T04:15:54.222Z,102330.47
2023-04-16T04:18:20.694Z,102329.44
2023-04-16T04:20:47.043Z,102331.47
2023-04-16T04:23:13.439Z,102330.72
2023-04-16T04:25:39.845Z,102331.47
2023-04-16T04:28:06.207Z,102334.97
2023-04-16T04:30:32.632Z,102332.50
2023-04-16T04:32:59.012Z,102340.16
2023-04-16T04:35:25.507Z,102340.44
2023-04-16T04:37:51.918Z,102346.09
2023-04-16T04:40:18.369Z,102347.56
2023-04-16T04:42:44.742Z,102346.81
2023-04-16T04:45:11.570Z,102332.97
2023-04-16T04:47:37.960Z,102346.38
2023-04-16T04:50:04.662Z,102353.63
2023-04-16T04:52:31.182Z,102354.75
2023-04-16T04:54:57.548Z,102355.38
2023-04-16T04:57:23.916Z,102352.13
2023-04-16T04:59:50.334Z,102332.06
2023-04-16T05:02:16.792Z,102359.16
2023-04-16T05:04:43.338Z,102357.47
2023-04-16T05:07:09.753Z,102351.06
2023-04-16T05:09:36.340Z,102352.63
2023-04-16T05:12:03.466Z,102356.44
2023-04-16T05:14:29.857Z,102361.53
2023-04-16T05:16:56.470Z,102360.06
2023-04-16T05:19:22.892Z,102364.78
2023-04-16T05:21:49.360Z,102364.16
2023-04-16T05:24:15.711Z,102371.69
2023-04-16T05:26:42.115Z,102378.72
2023-04-16T05:29:08.763Z,102370.91
2023-04-16T05:31:35.359Z,102373.16
2023-04-16T05:34:01.784Z,102380.88
2023-04-16T05:36:28.192Z,102363.34
2023-04-16T05:38:54.554Z,102379.22
2023-04-16T05:41:21.101Z,102386.81
2023-04-16T05:43:47.473Z,102396.63
2023-04-16T05:46:13.889Z,102394.56
2023-04-16T05:48:40.289Z,102395.78
2023-04-16T05:51:06.742Z,102371.19
2023-04-16T05:53:33.096Z,102398.06
2023-04-16T05:55:59.443Z,102398.94
2023-04-16T05:58:25.826Z,102396.41
2023-04-16T06:00:52.303Z,102399.03
2023-04-16T06:03:18.742Z,102403.28
2023-04-16T06:05:45.245Z,102396.66
2023-04-16T06:08:11.647Z,102381.69
2023-04-16T06:10:38.068Z,102401.94
2023-04-16T06:13:04.449Z,102413.63
2023-04-16T06:15:30.816Z,102416.50
2023-04-16T06:18:00.219Z,102408.59
2023-04-16T06:20:27.315Z,102413.97
2023-04-16T06:22:53.726Z,102410.56
2023-04-16T06:25:20.108Z,102414.72
2023-04-16T06:27:46.482Z,102428.03
2023-04-16T06:30:14.140Z,102423.75
2023-04-16T06:32:40.829Z,102394.47
2023-04-16T06:35:07.751Z,102431.44
2023-04-16T06:37:34.098Z,102436.75
2023-04-16T06:40:00.551Z,102430.31
2023-04-16T06:42:27.245Z,102447.09
2023-04-16T06:44:53.818Z,102452.28
2023-04-16T06:47:20.276Z,102455.94
2023-04-16T06:49:46.981Z,102455.47
2023-04-16T06:52:13.494Z,102453.72
2023-04-16T06:54:39.954Z,102449.78
2023-04-16T06:57:06.355Z,102457.72
2023-04-16T06:59:32.718Z,102453.56
2023-04-16T07:01:59.240Z,102459.19
2023-04-16T07:04:25.938Z,102460.25
2023-04-16T07:06:52.404Z,102465.47
2023-04-16T07:09:18.819Z,102464.56
2023-04-16T07:11:45.327Z,102436.69
2023-04-16T07:14:11.860Z,102448.63
2023-04-16T07:16:38.315Z,102469.06
2023-04-16T07:19:04.711Z,102466.31
2023-04-16T07:21:31.694Z,102469.56
2023-04-16T07:23:58.032Z,102478.50
2023-04-16T07:26:24.410Z,102484.72
2023-04-16T07:28:50.806Z,102464.63
2023-04-16T07:31:17.443Z,102444.84
2023-04-16T07:33:44.004Z,102471.56
2023-04-16T07:36:10.961Z,102486.97
2023-04-16T07:38:37.360Z,102471.94
2023-04-16T07:41:03.958Z,102485.94
2023-04-16T07:43:30.406Z,102496.75
2023-04-16T07:45:56.927Z,102499.56
2023-04-16T07:48:23.433Z,102489.69
2023-04-16T07:50:50.332Z,102490.00
2023-04-16T07:53:16.772Z,102493.13
2023-04-16T07:55:43.193Z,102498.38
2023-04-16T07:58:09.694Z,102499.47
2023-04-16T08:00:36.061Z,102506.88
2023-04-16T08:03:02.613Z,102507.72
2023-04-16T08:05:29.270Z,102507.16
2023-04-16T08:07:55.968Z,102505.25
2023-04-16T08:10:22.452Z,102509.88
2023-04-16T08:12:48.911Z,102513.50
2023-04-16T08:15:15.325Z,102511.56
2023-04-16T08:17:41.765Z,102506.50
2023-04-16T08:20:08.546Z,102516.56
2023-04-16T08:22:34.932Z,102507.00
2023-04-16T08:25:01.668Z,102512.16
2023-04-16T08:27:28.020Z,102512.66
2023-04-16T08:29:54.410Z,102511.22
2023-04-16T08:32:20.880Z,102514.56
2023-04-16T08:34:47.406Z,102511.66
2023-04-16T08:37:13.783Z,102511.66
2023-04-16T08:39:40.498Z,102515.69
2023-04-16T08:42:30.607Z,102509.19
2023-04-16T08:45:17.688Z,102517.34
2023-04-16T08:47:46.914Z,102525.50
2023-04-16T08:50:17.339Z,102521.28
2023-04-16T08:52:51.113Z,102516.50
2023-04-16T08:55:19.343Z,102519.28
2023-04-16T08:57:53.765Z,102522.75
2023-04-16T09:00:21.242Z,102529.41
2023-04-16T09:02:48.773Z,102527.75
2023-04-16T09:05:17.247Z,102532.81
2023-04-16T09:07:48.003Z,102527.88
2023-04-16T09:10:17.549Z,102523.78
2023-04-16T09:12:44.576Z,102515.84
2023-04-16T09:15:12.798Z,102540.75
2023-04-16T09:17:39.889Z,102511.50
2023-04-16T09:20:11.282Z,102540.91
2023-04-16T09:22:39.994Z,102539.22
2023-04-16T09:25:07.307Z,102525.22
2023-04-16T09:27:33.812Z,102534.78
2023-04-16T09:30:01.544Z,102535.06
2023-04-16T09:32:29.130Z,102541.41
2023-04-16T09:35:00.770Z,102544.75
2023-04-16T09:37:31.048Z,102542.69
2023-04-16T09:40:03.536Z,102545.63
2023-04-16T09:42:36.149Z,102543.91
2023-04-16T09:45:05.553Z,102510.03
2023-04-16T09:47:43.603Z,102543.63
2023-04-16T09:50:17.795Z,102548.81
2023-04-16T09:52:50.340Z,102553.41
2023-04-16T09:55:16.807Z,102543.88
2023-04-16T09:57:43.192Z,102549.66
2023-04-16T10:00:10.711Z,102553.09
2023-04-16T10:02:42.013Z,102549.13
2023-04-16T10:05:09.109Z,102556.16
2023-04-16T10:07:36.993Z,102550.22
2023-04-16T10:10:04.441Z,102550.41
2023-04-16T10:12:32.710Z,102559.53
2023-04-16T10:14:59.178Z,102560.03
2023-04-16T10:17:26.421Z,102557.00
2023-04-16T10:19:54.539Z,102568.19
2023-04-16T10:22:21.026Z,102567.47
2023-04-16T10:24:48.771Z,102550.41
2023-04-16T10:27:16.580Z,102556.63
2023-04-16T10:29:43.275Z,102551.13
2023-04-16T10:32:10.332Z,102554.47
2023-04-16T10:34:36.792Z,102551.13
2023-04-16T10:37:03.199Z,102556.25
2023-04-16T10:39:29.661Z,102540.53
2023-04-16T10:42:12.766Z,102541.22
2023-04-16T10:44:43.481Z,102551.19
2023-04-16T10:47:12.928Z,102554.28
2023-04-16T10:49:40.215Z,102539.50
2023-04-16T10:52:14.914Z,102542.53
2023-04-16T10:54:41.447Z,102548.06
2023-04-16T10:57:16.060Z,102534.91
2023-04-16T10:59:43.675Z,102521.38
2023-04-16T11:02:14.793Z,102539.06
2023-04-16T11:04:46.274Z,102543.59
2023-04-16T11:07:16.393Z,102550.19
2023-04-16T11:10:02.240Z,102550.19
2023-04-16T11:12:34.363Z,102543.06
2023-04-16T11:15:06.292Z,102535.44
2023-04-16T11:17:38.053Z,102545.66
2023-04-16T11:20:19.358Z,102522.00
2023-04-16T11:22:48.587Z,102549.03
2023-04-16T11:25:26.957Z,102539.91
2023-04-16T11:27:53.832Z,102554.97
2023-04-16T11:30:33.857Z,102544.06
2023-04-16T11:33:09.711Z,102543.75
2023-04-16T11:35:36.248Z,102544.44
2023-04-16T11:38:02.642Z,102551.13
2023-04-16T11:40:32.135Z,102536.72
2023-04-16T11:43:27.827Z,102552.88
2023-04-16T11:46:10.327Z,102555.56
2023-04-16T11:48:51.611Z,102553.69
2023-04-16T11:51:18.638Z,102554.69
2023-04-16T11:53:46.937Z,102553.31
2023-04-16T11:56:13.377Z,102551.59
2023-04-16T11:58:43.148Z,102556.06
2023-04-16T12:01:10.163Z,102551.59
2023-04-16T12:03:44.248Z,102559.84
2023-04-16T12:06:11.005Z,102545.13
2023-04-16T12:08:37.508Z,102564.13
2023-04-16T12:11:04.451Z,102560.41
2023-04-16T12:13:30.968Z,102561.91
2023-04-16T12:15:57.361Z,102565.09
2023-04-16T12:18:26.886Z,102564.81
2023-04-16T12:20:53.612Z,102565.84
2023-04-16T12:23:34.219Z,102561.91
2023-04-16T12:26:10.225Z,102551.00
2023-04-16T12:28:40.741Z,102564.22
2023-04-16T12:31:07.217Z,102565.09
2023-04-16T12:33:33.676Z,102569.56
2023-04-16T12:36:01.504Z,102536.44
2023-04-16T12:38:28.580Z,102568.66
2023-04-16T12:40:56.952Z,102559.91
2023-04-16T12:43:23.942Z,102555.53
2023-04-16T12:45:50.490Z,102548.50
2023-04-16T12:48:16.953Z,102553.94
2023-04-16T12:50:44.280Z,102554.16
2023-04-16T12:53:11.458Z,102551.69
2023-04-16T12:55:37.884Z,102558.41
2023-04-16T12:58:04.281Z,102563.03
2023-04-16T13:00:30.680Z,102574.75
2023-04-16T13:02:57.249Z,102562.13
2023-04-16T13:05:23.782Z,102573.22
2023-04-16T13:07:50.209Z,102566.88
2023-04-16T13:10:16.657Z,102570.03
2023-04-16T13:12:43.123Z,102574.53
2023-04-16T13:15:10.447Z,102570.16
2023-04-16T13:17:36.939Z,102569.66
2023-04-16T13:20:03.514Z,102567.63
2023-04-16T13:22:30.131Z,102576.53
2023-04-16T13:24:56.963Z,102575.00
2023-04-16T13:27:23.343Z,102551.75
2023-04-16T13:29:49.732Z,102573.44
2023-04-16T13:32:16.446Z,102573.06
2023-04-16T13:34:42.856Z,102572.44
2023-04-16T13:37:09.238Z,102569.03
2023-04-16T13:39:35.695Z,102555.03
2023-04-16T13:42:02.656Z,102555.63
2023-04-16T13:44:29.026Z,102540.06
2023-04-16T13:46:56.144Z,102535.97
2023-04-16T13:49:23.403Z,102579.44
2023-04-16T13:51:49.854Z,102557.31
2023-04-16T13:54:16.194Z,102578.72
2023-04-16T13:56:42.689Z,102574.63
2023-04-16T13:59:09.393Z,102571.75
2023-04-16T14:01:35.873Z,102556.00
2023-04-16T14:04:06.766Z,102567.88
2023-04-16T14:06:34.740Z,102575.31
2023-04-16T14:09:01.819Z,102565.84
2023-04-16T14:11:28.464Z,102569.41
2023-04-16T14:13:54.977Z,102570.22
2023-04-16T14:16:21.523Z,102561.50
2023-04-16T14:18:48.065Z,102567.41
2023-04-16T14:21:14.444Z,102559.91
2023-04-16T14:23:41.087Z,102560.28
2023-04-16T14:26:07.583Z,102562.75
2023-04-16T14:28:34.186Z,102560.69
2023-04-16T14:31:00.526Z,102559.41
2023-04-16T14:33:27.702Z,102549.78
2023-04-16T14:35:54.744Z,102572.50
2023-04-16T14:38:21.250Z,102548.47
2023-04-16T14:40:48.473Z,102543.03
2023-04-16T14:43:14.965Z,102578.22
2023-04-16T14:45:41.695Z,102571.22
2023-04-16T14:48:08.175Z,102557.44
2023-04-16T14:50:37.883Z,102532.84
2023-04-16T14:53:07.372Z,102562.63
2023-04-16T14:55:33.780Z,102564.75
2023-04-16T14:58:00.163Z,102560.50
2023-04-16T15:00:27.316Z,102553.88
2023-04-16T15:02:54.948Z,102555.91
2023-04-16T15:05:22.206Z,102558.81
2023-04-16T15:07:48.583Z,102562.19
2023-04-16T15:10:15.045Z,102564.78
2023-04-16T15:12:41.448Z,102550.97
2023-04-16T15:15:08.706Z,102564.19
2023-04-16T15:17:35.419Z,102558.44
2023-04-16T15:20:01.990Z,102567.19
2023-04-16T15:22:28.420Z,102572.28
2023-04-16T15:24:54.790Z,102564.88
2023-04-16T15:27:21.143Z,102567.16
2023-04-16T15:29:49.289Z,102563.16
2023-04-16T15:32:15.739Z,102552.50
2023-04-16T15:34:42.144Z,102573.47
2023-04-16T15:37:09.604Z,102566.06
2023-04-16T15:39:36.036Z,102568.41
2023-04-16T15:42:07.079Z,102539.16
2023-04-16T15:44:34.327Z,102563.50
2023-04-16T15:47:01.114Z,102564.31
2023-04-16T15:49:27.523Z,102577.19
2023-04-16T15:51:53.947Z,102575.63
2023-04-16T15:54:20.331Z,102572.59
2023-04-16T15:56:47.032Z,102595.69
2023-04-16T15:59:13.639Z,102591.59
2023-04-16T16:01:40.235Z,102588.25
2023-04-16T16:04:07.979Z,102590.22
2023-04-16T16:06:34.818Z,102583.88
2023-04-16T16:09:01.716Z,102590.09
2023-04-16T16:11:28.385Z,102595.16
2023-04-16T16:13:54.881Z,102595.78
2023-04-16T16:16:21.865Z,102582.63
2023-04-16T16:18:48.666Z,102604.38
2023-04-16T16:21:15.068Z,102593.25
2023-04-16T16:23:41.468Z,102608.06
2023-04-16T16:26:07.865Z,102595.50
2023-04-16T16:28:37.489Z,102599.06
2023-04-16T16:31:05.782Z,102601.63
2023-04-16T16:33:32.204Z,102592.28
2023-04-16T16:35:58.598Z,102592.66
2023-04-16T16:38:25.006Z,102597.38
2023-04-16T16:40:51.444Z,102590.94
2023-04-16T16:43:17.846Z,102601.56
2023-04-16T16:45:44.348Z,102589.47
2023-04-16T16:48:10.697Z,102573.25
2023-04-16T16:50:37.058Z,102602.50
2023-04-16T16:53:03.704Z,102614.63
2023-04-16T16:55:31.213Z,102580.78
2023-04-16T16:57:58.383Z,102604.56
2023-04-16T17:00:24.907Z,102613.75
2023-04-16T17:02:51.994Z,102612.81
2023-04-16T17:05:18.763Z,102621.28
2023-04-16T17:07:45.815Z,102598.06
2023-04-16T17:10:21.708Z,102621.88
2023-04-16T17:12:49.517Z,102615.75
2023-04-16T17:15:17.973Z,102609.81
2023-04-16T17:17:45.646Z,102620.59
2023-04-16T17:20:12.466Z,102627.91
2023-04-16T17:22:40.187Z,102627.69
2023-04-16T17:25:07.784Z,102624.28
2023-04-16T17:27:34.406Z,102630.00
2023-04-16T17:30:02.056Z,102603.91
2023-04-16T17:32:29.760Z,102628.34
2023-04-16T17:34:56.636Z,102599.53
2023-04-16T17:37:23.479Z,102631.50
2023-04-16T17:39:51.028Z,102639.44
2023-04-16T17:42:17.531Z,102630.53
2023-04-16T17:44:44.087Z,102635.19
2023-04-16T17:47:10.778Z,102623.88
2023-04-16T17:49:37.182Z,102632.16
2023-04-16T17:52:03.691Z,102648.88
2023-04-16T17:54:30.440Z,102634.84
2023-04-16T17:56:57.578Z,102641.50
2023-04-16T17:59:24.049Z,102604.03
2023-04-16T18:01:50.578Z,102635.97
2023-04-16T18:04:17.740Z,102652.00
2023-04-16T18:06:44.556Z,102635.41
2023-04-16T18:09:11.985Z,102656.25
2023-04-16T18:11:38.440Z,102646.63
2023-04-16T18:14:04.922Z,102661.03
2023-04-16T18:16:31.386Z,102667.69
2023-04-16T18:18:57.857Z,102673.66
2023-04-16T18:21:24.357Z,102675.78
2023-04-16T18:23:50.818Z,102685.53
2023-04-16T18:26:20.546Z,102682.09
2023-04-16T18:28:48.573Z,102683.56
2023-04-16T18:31:15.047Z,102676.88
2023-04-16T18:33:55.555Z,102687.41
2023-04-16T18:36:22.560Z,102701.09
2023-04-16T18:39:01.021Z,102706.75
2023-04-16T18:41:29.506Z,102714.09
2023-04-16T18:43:56.116Z,102716.31
2023-04-16T18:46:22.590Z,102715.75
2023-04-16T18:48:49.106Z,102713.88
2023-04-16T18:51:16.494Z,102726.75
2023-04-16T18:53:44.189Z,102722.41
2023-04-16T18:56:11.602Z,102719.31
2023-04-16T18:58:38.148Z,102720.84
2023-04-16T19:01:06.100Z,102709.09
2023-04-16T19:03:33.319Z,102727.03
2023-04-16T19:06:00.097Z,102732.75
2023-04-16T19:08:27.097Z,102731.03
2023-04-16T19:10:53.465Z,102722.63
2023-04-16T19:13:19.956Z,102729.84
2023-04-16T19:15:46.380Z,102726.69
2023-04-16T19:18:12.919Z,102706.72
2023-04-16T19:20:39.545Z,102713.59
2023-04-16T19:23:08.322Z,102725.16
2023-04-16T19:25:37.367Z,102742.13
2023-04-16T19:28:03.986Z,102733.41
2023-04-16T19:30:30.953Z,102747.22
2023-04-16T19:32:57.669Z,102737.69
2023-04-16T19:35:24.264Z,102738.75
2023-04-16T19:37:50.956Z,102718.69
2023-04-16T19:40:17.391Z,102741.91
2023-04-16T19:42:45.407Z,102746.69
2023-04-16T19:45:11.934Z,102748.38
2023-04-16T19:47:38.572Z,102742.63
2023-04-16T19:50:05.778Z,102758.78
2023-04-16T19:52:37.263Z,102747.81
2023-04-16T19:55:03.954Z,102755.00
2023-04-16T19:57:30.449Z,102760.22
2023-04-16T19:59:57.055Z,102761.97
2023-04-16T20:02:23.515Z,102763.63
2023-04-16T20:04:50.725Z,102764.66
2023-04-16T20:07:17.424Z,102764.38
2023-04-16T20:09:43.820Z,102762.59
2023-04-16T20:12:10.426Z,102769.31
2023-04-16T20:14:36.836Z,102769.16
2023-04-16T20:17:03.495Z,102772.66
2023-04-16T20:19:33.295Z,102766.25
2023-04-16T20:21:59.657Z,102770.63
2023-04-16T20:24:26.509Z,102770.44
2023-04-16T20:26:52.911Z,102771.94
2023-04-16T20:29:19.378Z,102756.13
2023-04-16T20:31:46.125Z,102783.53
2023-04-16T20:34:12.794Z,102783.97
2023-04-16T20:36:39.211Z,102777.47
2023-04-16T20:39:07.187Z,102782.38
2023-04-16T20:41:33.949Z,102777.63
2023-04-16T20:44:05.185Z,102781.91
2023-04-16T20:46:34.402Z,102779.56
2023-04-16T20:49:01.138Z,102777.84
2023-04-16T20:51:27.631Z,102784.19
2023-04-16T20:53:54.094Z,102778.44
2023-04-16T20:56:20.485Z,102778.50
2023-04-16T20:58:46.845Z,102768.59
2023-04-16T21:01:13.354Z,102786.22
2023-04-16T21:03:39.873Z,102785.78
2023-04-16T21:06:06.351Z,102794.00
2023-04-16T21:08:32.780Z,102788.59
2023-04-16T21:10:59.185Z,102793.97
2023-04-16T21:13:25.569Z,102794.84
2023-04-16T21:15:52.206Z,102795.09
2023-04-16T21:18:18.630Z,102796.47
2023-04-16T21:20:45.057Z,102787.91
2023-04-16T21:23:11.608Z,102786.50
2023-04-16T21:25:38.045Z,102782.03
2023-04-16T21:28:04.925Z,102787.78
2023-04-16T21:30:31.379Z,102757.16
2023-04-16T21:32:57.800Z,102793.75
2023-04-16T21:35:24.319Z,102788.75
2023-04-16T21:37:50.736Z,102794.03
2023-04-16T21:40:17.221Z,102793.41
2023-04-16T21:42:44.424Z,102799.28
2023-04-16T21:45:11.231Z,102799.97
2023-04-16T21:47:38.269Z,102789.38
2023-04-16T21:50:05.055Z,102792.28
2023-04-16T21:52:32.814Z,102796.44
2023-04-16T21:55:00.376Z,102793.53
2023-04-16T21:57:26.858Z,102790.38
2023-04-16T21:59:53.318Z,102796.22
2023-04-16T22:02:19.786Z,102779.84
2023-04-16T22:04:46.273Z,102761.78
2023-04-16T22:07:12.724Z,102772.28
2023-04-16T22:09:40.337Z,102768.75
2023-04-16T22:12:07.066Z,102772.97
2023-04-16T22:14:38.349Z,102759.84
2023-04-16T22:17:05.673Z,102746.78
2023-04-16T22:19:32.136Z,102749.69
2023-04-16T22:21:58.575Z,102771.41
2023-04-16T22:24:24.928Z,102749.56
2023-04-16T22:26:51.291Z,102767.53
2023-04-16T22:29:17.658Z,102769.47
2023-04-16T22:31:44.135Z,102772.06
2023-04-16T22:34:10.529Z,102777.75
2023-04-16T22:36:36.906Z,102743.50
2023-04-16T22:39:08.266Z,102768.25
2023-04-16T22:41:37.797Z,102777.41
2023-04-16T22:44:04.203Z,102777.66
2023-04-16T22:46:30.974Z,102769.59
2023-04-16T22:48:57.852Z,102778.50
2023-04-16T22:51:24.478Z,102768.47
2023-04-16T22:53:51.786Z,102772.53
2023-04-16T22:56:19.689Z,102765.56
2023-04-16T22:58:46.445Z,102746.41
2023-04-16T23:01:12.952Z,102767.50
2023-04-16T23:03:39.496Z,102765.69
2023-04-16T23:06:06.647Z,102762.22
2023-04-16T23:08:33.034Z,102762.28
2023-04-16T23:10:59.444Z,102778.78
2023-04-16T23:13:25.901Z,102776.06
2023-04-16T23:15:52.395Z,102781.44
2023-04-16T23:18:18.816Z,102773.72
2023-04-16T23:20:45.222Z,102777.28
2023-04-16T23:23:11.572Z,102776.41
2023-04-16T23:25:41.048Z,102769.09
2023-04-16T23:28:07.506Z,102773.25
2023-04-16T23:30:33.870Z,102773.28
2023-04-16T23:33:00.299Z,102782.41
2023-04-16T23:35:26.712Z,102774.59
2023-04-16T23:37:53.080Z,102782.31
2023-04-16T23:40:19.459Z,102786.56
2023-04-16T23:42:46.018Z,102762.16
2023-04-16T23:45:12.418Z,102785.72
2023-04-16T23:47:38.893Z,102790.69
2023-04-16T23:50:06.130Z,102783.38
2023-04-16T23:52:32.518Z,102786.41
2023-04-16T23:54:58.893Z,102782.75
2023-04-16T23:57:25.519Z,102797.88
2023-04-16T23:59:51.893Z,102785.94
